Time;durP1;ratioP1;P1;durP2;ratioP2;P2;SDS_P1;SDS_P2;PMS_P1;PMS_P2;Temp;Humidity;BMP_temperature;BMP_pressure;BME280_temperature;BME280_humidity;BME280_pressure;Samples;Min_cycle;Max_cycle;Signal;HPM_P1;HPM_P2
2022/05/28 00:00:25;;;;;;;4.60;3.93;;;20.20;99.90;;;;;;6300699;28;20219;-66
2022/05/28 00:03:29;;;;;;;4.13;3.83;;;20.10;99.90;;;;;;6300708;28;20227;-65
2022/05/28 00:06:34;;;;;;;4.97;4.40;;;20.10;99.90;;;;;;6300600;28;20199;-65
2022/05/28 00:09:37;;;;;;;5.27;4.00;;;20.10;99.90;;;;;;6300524;28;20199;-65
2022/05/28 00:12:41;;;;;;;4.70;4.30;;;20.10;99.90;;;;;;6300286;28;20242;-65
2022/05/28 00:15:45;;;;;;;3.90;3.50;;;20.00;99.90;;;;;;6301012;28;20231;-65
2022/05/28 00:18:51;;;;;;;7.43;4.30;;;20.00;99.90;;;;;;6300598;28;20227;-64
2022/05/28 00:21:55;;;;;;;3.80;3.50;;;20.00;99.90;;;;;;6300379;28;20238;-64
2022/05/28 00:24:58;;;;;;;3.90;3.60;;;19.90;99.90;;;;;;6300923;28;20239;-65
2022/05/28 00:28:01;;;;;;;6.70;4.23;;;19.70;99.90;;;;;;6299536;28;20223;-65
2022/05/28 00:31:06;;;;;;;5.20;3.77;;;19.60;99.90;;;;;;6300602;28;20231;-66
2022/05/28 00:34:09;;;;;;;5.33;4.20;;;19.60;99.90;;;;;;6300002;28;20227;-65
2022/05/28 00:37:12;;;;;;;4.87;3.90;;;19.60;99.90;;;;;;6299868;28;20223;-66
2022/05/28 00:40:20;;;;;;;4.33;3.80;;;19.60;99.90;;;;;;6300018;28;20272;-66
2022/05/28 00:43:25;;;;;;;6.10;4.40;;;19.40;99.90;;;;;;6299504;28;20243;-65
2022/05/28 00:46:29;;;;;;;4.03;3.73;;;19.40;99.90;;;;;;6300177;28;20684;-65
2022/05/28 00:49:33;;;;;;;6.07;4.23;;;19.30;99.90;;;;;;6300241;28;20223;-65
2022/05/28 00:52:36;;;;;;;4.47;4.03;;;19.50;99.90;;;;;;6299611;28;20237;-65
2022/05/28 00:55:40;;;;;;;5.20;4.70;;;19.50;99.90;;;;;;6295117;28;20231;-66
2022/05/28 00:58:43;;;;;;;5.03;4.53;;;19.50;99.90;;;;;;6299662;28;20226;-66
2022/05/28 01:01:48;;;;;;;5.60;5.03;;;19.40;99.90;;;;;;6299997;28;20235;-65
2022/05/28 01:04:59;;;;;;;4.93;4.53;;;19.30;99.90;;;;;;6299802;28;20222;-65
2022/05/28 01:08:14;;;;;;;5.20;4.40;;;19.10;99.90;;;;;;6300005;28;20364;-66
2022/05/28 01:11:24;;;;;;;5.17;4.40;;;19.00;99.90;;;;;;6299420;28;20227;-62
2022/05/28 01:14:33;;;;;;;4.73;3.70;;;18.90;99.90;;;;;;6299716;28;20971;-65
2022/05/28 01:17:41;;;;;;;4.67;3.47;;;18.90;99.90;;;;;;6299784;28;20469;-65
2022/05/28 01:20:50;;;;;;;5.50;3.60;;;18.90;99.90;;;;;;6299576;28;20231;-65
2022/05/28 01:24:01;;;;;;;3.93;3.63;;;18.80;99.90;;;;;;6298987;28;20481;-64
2022/05/28 01:27:11;;;;;;;3.67;3.37;;;18.70;99.90;;;;;;6299180;28;20716;-65
2022/05/28 01:30:17;;;;;;;3.67;3.33;;;18.60;99.90;;;;;;6299298;28;20484;-64
2022/05/28 01:33:21;;;;;;;4.97;3.77;;;18.50;99.90;;;;;;6299168;28;20473;-66
2022/05/28 01:36:26;;;;;;;3.70;3.40;;;18.40;99.90;;;;;;6299274;28;20458;-65
2022/05/28 01:39:30;;;;;;;3.73;3.43;;;18.30;99.90;;;;;;6299595;28;20209;-65
2022/05/28 01:42:38;;;;;;;4.20;3.90;;;18.30;99.90;;;;;;6278918;28;20469;-65
2022/05/28 01:45:44;;;;;;;4.13;3.83;;;18.30;99.90;;;;;;6279025;28;20474;-65
2022/05/28 01:48:53;;;;;;;4.73;4.17;;;18.40;99.90;;;;;;6278773;28;20760;-65
2022/05/28 01:52:00;;;;;;;4.00;3.63;;;18.30;99.90;;;;;;6278530;28;20466;-64
2022/05/28 01:55:04;;;;;;;5.03;4.00;;;18.30;99.90;;;;;;6279045;28;20468;-64
2022/05/28 01:58:09;;;;;;;3.87;3.57;;;18.20;99.90;;;;;;6269328;28;20481;-64
2022/05/28 02:01:12;;;;;;;5.93;2.97;;;17.90;99.90;;;;;;6278318;28;20485;-65
2022/05/28 02:04:15;;;;;;;4.30;3.37;;;17.60;99.90;;;;;;6278503;28;20481;-65
2022/05/28 02:07:20;;;;;;;3.50;3.20;;;17.50;99.90;;;;;;6278236;28;20970;-65
2022/05/28 02:10:24;;;;;;;3.93;3.30;;;17.60;99.90;;;;;;6278424;28;20476;-64
2022/05/28 02:13:35;;;;;;;3.90;3.60;;;17.70;99.90;;;;;;6278389;28;20481;-65
2022/05/28 02:16:47;;;;;;;4.53;4.00;;;17.70;99.90;;;;;;6278502;28;21018;-65
2022/05/28 02:19:57;;;;;;;3.80;3.50;;;17.60;99.90;;;;;;6279191;28;20577;-64
2022/05/28 02:23:08;;;;;;;4.43;4.03;;;17.40;99.90;;;;;;6278305;28;20470;-65
2022/05/28 02:26:16;;;;;;;8.43;3.30;;;17.40;99.90;;;;;;6278031;28;20480;-65
2022/05/28 02:29:22;;;;;;;4.80;4.10;;;17.40;99.90;;;;;;6277697;28;20474;-65
2022/05/28 02:32:26;;;;;;;3.63;3.30;;;17.30;99.90;;;;;;6277880;28;20710;-64
2022/05/28 02:35:29;;;;;;;4.40;3.70;;;17.50;99.90;;;;;;6277905;28;20466;-65
2022/05/28 02:38:32;;;;;;;4.27;3.40;;;17.50;99.90;;;;;;6277466;28;20474;-65
2022/05/28 02:41:35;;;;;;;4.03;3.57;;;17.50;99.90;;;;;;6277374;28;20490;-64
2022/05/28 02:44:40;;;;;;;4.40;3.30;;;17.50;99.90;;;;;;6277211;28;20478;-65
2022/05/28 02:47:44;;;;;;;6.70;4.37;;;17.30;99.90;;;;;;6277512;28;20466;-65
2022/05/28 02:50:47;;;;;;;4.10;3.80;;;17.40;99.90;;;;;;6276693;28;20474;-65
2022/05/28 02:53:53;;;;;;;5.80;4.00;;;17.50;99.90;;;;;;6277385;28;20471;-65
2022/05/28 02:56:57;;;;;;;4.33;3.80;;;17.60;99.90;;;;;;6277425;28;20488;-65
2022/05/28 03:00:01;;;;;;;4.70;3.70;;;17.70;99.90;;;;;;6276863;28;20805;-65
2022/05/28 03:03:04;;;;;;;4.80;4.40;;;17.60;99.90;;;;;;6276482;28;20489;-64
2022/05/28 03:06:07;;;;;;;5.03;3.93;;;17.30;99.90;;;;;;6276599;28;20478;-65
2022/05/28 03:09:11;;;;;;;4.60;4.20;;;17.30;99.90;;;;;;6277077;28;20987;-65
2022/05/28 03:12:14;;;;;;;5.00;3.80;;;17.20;99.90;;;;;;6276385;28;20497;-64
2022/05/28 03:15:19;;;;;;;6.30;4.20;;;17.20;99.90;;;;;;6277413;28;20474;-64
2022/05/28 03:18:22;;;;;;;3.80;3.50;;;17.20;99.90;;;;;;6277029;28;20470;-64
2022/05/28 03:21:25;;;;;;;5.40;5.00;;;17.20;99.90;;;;;;6276455;28;20457;-64
2022/05/28 03:24:28;;;;;;;4.10;3.80;;;17.20;99.90;;;;;;6276462;28;20439;-65
2022/05/28 03:27:31;;;;;;;4.67;3.90;;;17.10;99.90;;;;;;6276969;28;20457;-65
2022/05/28 03:30:36;;;;;;;4.37;3.97;;;17.00;99.90;;;;;;6276438;28;20438;-65
2022/05/28 03:33:40;;;;;;;3.87;3.47;;;16.90;99.90;;;;;;6275926;28;20966;-65
2022/05/28 03:36:43;;;;;;;3.73;3.43;;;17.00;99.90;;;;;;6276136;28;20924;-65
2022/05/28 03:39:46;;;;;;;3.53;3.23;;;16.90;99.90;;;;;;6276488;28;20454;-65
2022/05/28 03:42:49;;;;;;;4.33;3.23;;;16.80;99.90;;;;;;6276422;28;20471;-64
2022/05/28 03:45:54;;;;;;;3.70;3.40;;;16.90;99.90;;;;;;6275765;28;20481;-65
2022/05/28 03:49:01;;;;;;;4.37;3.50;;;16.90;99.90;;;;;;6276656;28;20484;-65
2022/05/28 03:52:05;;;;;;;3.83;3.53;;;16.90;99.90;;;;;;6276003;28;20462;-65
2022/05/28 03:55:09;;;;;;;3.73;3.43;;;17.00;99.90;;;;;;6275967;28;20804;-65
2022/05/28 03:58:13;;;;;;;3.47;3.17;;;16.90;99.90;;;;;;6275796;28;20781;-65
2022/05/28 04:01:17;;;;;;;4.17;3.30;;;16.90;99.90;;;;;;6275810;28;20911;-64
2022/05/28 04:04:21;;;;;;;4.70;4.40;;;16.80;99.90;;;;;;6266775;28;20489;-66
2022/05/28 04:07:25;;;;;;;3.50;3.20;;;16.80;99.90;;;;;;6276016;28;20482;-65
2022/05/28 04:10:28;;;;;;;3.67;3.37;;;16.90;99.90;;;;;;6275821;28;20474;-65
2022/05/28 04:13:31;;;;;;;4.20;3.70;;;16.90;99.90;;;;;;6275405;28;20481;-65
2022/05/28 04:16:36;;;;;;;3.50;3.20;;;16.80;99.90;;;;;;6275609;28;20471;-65
2022/05/28 04:19:39;;;;;;;5.27;3.17;;;16.90;99.90;;;;;;6275589;28;20917;-65
2022/05/28 04:22:42;;;;;;;3.33;2.80;;;17.00;99.90;;;;;;6275405;28;20825;-64
2022/05/28 04:25:45;;;;;;;3.67;3.30;;;17.00;99.90;;;;;;6275695;28;20473;-64
2022/05/28 04:28:49;;;;;;;3.37;2.80;;;17.00;99.90;;;;;;6275501;28;20477;-66
2022/05/28 04:31:53;;;;;;;3.40;3.17;;;17.00;99.90;;;;;;6274948;28;20478;-65
2022/05/28 04:34:56;;;;;;;3.30;3.10;;;17.00;99.90;;;;;;6274999;28;20485;-65
2022/05/28 04:38:00;;;;;;;3.70;3.40;;;16.90;99.90;;;;;;6274735;28;20476;-65
2022/05/28 04:41:03;;;;;;;3.13;2.93;;;16.80;99.90;;;;;;6275332;28;20956;-63
2022/05/28 04:44:06;;;;;;;7.63;3.47;;;16.80;99.90;;;;;;6274632;28;20940;-62
2022/05/28 04:47:11;;;;;;;3.20;2.80;;;16.70;99.90;;;;;;6275145;28;20480;-64
2022/05/28 04:50:14;;;;;;;3.47;3.17;;;16.70;99.90;;;;;;6275018;28;20488;-65
2022/05/28 04:53:17;;;;;;;4.40;3.40;;;16.60;99.90;;;;;;6274742;28;20488;-64
2022/05/28 04:56:21;;;;;;;3.10;2.80;;;16.60;99.90;;;;;;6275228;28;20470;-65
2022/05/28 04:59:24;;;;;;;3.00;2.70;;;16.60;99.90;;;;;;6274954;28;20799;-65
2022/05/28 05:02:29;;;;;;;4.43;2.83;;;16.70;99.90;;;;;;6275498;28;20481;-65
2022/05/28 05:05:32;;;;;;;2.57;2.37;;;16.50;99.90;;;;;;6274851;28;20485;-65
2022/05/28 05:08:35;;;;;;;5.20;3.00;;;16.50;99.90;;;;;;6265713;28;20473;-65
2022/05/28 05:11:39;;;;;;;3.60;3.30;;;16.60;99.90;;;;;;6274695;28;20485;-64
2022/05/28 05:14:42;;;;;;;5.03;3.70;;;16.60;99.90;;;;;;6275685;28;20794;-65
2022/05/28 05:17:46;;;;;;;3.73;3.03;;;16.60;99.90;;;;;;6279609;28;20465;-65
2022/05/28 05:20:50;;;;;;;3.10;2.90;;;16.60;99.90;;;;;;6279584;28;20470;-65
2022/05/28 05:23:53;;;;;;;3.47;3.20;;;16.60;99.90;;;;;;6279613;28;20488;-65
2022/05/28 05:26:57;;;;;;;3.27;2.80;;;16.60;99.90;;;;;;6279408;28;20481;-65
2022/05/28 05:30:01;;;;;;;3.37;3.10;;;16.60;99.90;;;;;;6279611;28;20485;-66
2022/05/28 05:33:05;;;;;;;4.00;3.57;;;16.60;99.90;;;;;;6279356;28;20486;-66
2022/05/28 05:36:10;;;;;;;3.40;3.03;;;16.60;99.90;;;;;;6279571;28;20474;-64
2022/05/28 05:39:14;;;;;;;4.67;3.00;;;16.70;99.90;;;;;;6278754;28;20772;-64
2022/05/28 05:42:18;;;;;;;3.40;2.90;;;16.60;99.90;;;;;;6279010;28;20485;-64
2022/05/28 05:45:21;;;;;;;3.07;2.87;;;16.70;99.90;;;;;;6278832;28;20479;-65
2022/05/28 05:48:26;;;;;;;3.17;2.90;;;16.70;99.90;;;;;;6279256;28;20473;-64
2022/05/28 05:51:29;;;;;;;3.27;3.00;;;16.70;99.90;;;;;;6279032;28;20860;-63
2022/05/28 05:54:33;;;;;;;4.87;3.60;;;16.70;99.90;;;;;;6278882;28;20485;-64
2022/05/28 05:57:36;;;;;;;5.47;3.00;;;16.80;99.90;;;;;;6278865;28;20452;-64
2022/05/28 06:00:40;;;;;;;2.90;2.70;;;16.70;99.90;;;;;;6279471;28;20888;-64
2022/05/28 06:03:45;;;;;;;4.30;3.27;;;16.80;99.90;;;;;;6278498;28;20458;-64
2022/05/28 06:06:48;;;;;;;2.80;2.60;;;16.80;99.90;;;;;;6278576;28;21031;-64
2022/05/28 06:09:51;;;;;;;3.40;3.10;;;16.60;99.90;;;;;;6269492;28;20488;-64
2022/05/28 06:12:55;;;;;;;3.73;3.00;;;16.60;99.90;;;;;;6278503;28;20470;-65
2022/05/28 06:15:58;;;;;;;5.33;3.10;;;16.70;99.90;;;;;;6278608;28;20474;-64
2022/05/28 06:19:04;;;;;;;3.17;2.83;;;16.60;99.90;;;;;;6278981;28;20497;-64
2022/05/28 06:22:07;;;;;;;3.33;2.97;;;16.60;99.90;;;;;;6278908;28;20470;-64
2022/05/28 06:25:11;;;;;;;4.50;2.60;;;16.60;99.90;;;;;;6278642;28;20474;-64
2022/05/28 06:28:15;;;;;;;4.60;2.90;;;16.60;99.90;;;;;;6277399;28;20787;-64
2022/05/28 06:31:18;;;;;;;3.03;2.83;;;16.50;99.90;;;;;;6279078;28;20474;-63
2022/05/28 06:34:23;;;;;;;2.27;2.07;;;16.50;99.90;;;;;;6278062;28;20466;-65
2022/05/28 06:37:26;;;;;;;2.83;2.40;;;16.40;99.90;;;;;;6277959;28;20597;-65
2022/05/28 06:40:29;;;;;;;2.60;2.40;;;16.40;99.90;;;;;;6278424;28;20485;-65
2022/05/28 06:43:32;;;;;;;5.50;3.90;;;16.30;99.90;;;;;;6277256;28;20474;-65
2022/05/28 06:46:36;;;;;;;3.60;3.30;;;16.20;99.90;;;;;;6278267;28;20832;-65
2022/05/28 06:49:40;;;;;;;2.97;2.70;;;16.00;99.90;;;;;;6277929;28;20478;-64
2022/05/28 06:52:43;;;;;;;3.03;2.73;;;15.80;99.90;;;;;;6277328;28;20963;-64
2022/05/28 06:55:47;;;;;;;3.93;3.33;;;15.80;99.90;;;;;;6277534;28;20599;-65
2022/05/28 06:58:50;;;;;;;2.53;2.33;;;15.60;99.90;;;;;;6277813;28;20470;-65
2022/05/28 07:01:56;;;;;;;3.20;2.80;;;15.60;99.90;;;;;;6277159;28;20959;-64
2022/05/28 07:05:00;;;;;;;3.20;2.90;;;15.70;99.90;;;;;;6277276;28;20967;-65
2022/05/28 07:08:04;;;;;;;2.90;2.70;;;15.80;99.90;;;;;;6277390;28;20470;-65
2022/05/28 07:11:07;;;;;;;5.80;2.70;;;16.00;99.90;;;;;;6277437;28;20477;-65
2022/05/28 07:14:10;;;;;;;6.30;2.60;;;15.90;99.90;;;;;;6268293;28;20490;-65
2022/05/28 07:17:14;;;;;;;4.47;2.80;;;15.80;99.90;;;;;;6276963;28;20469;-65
2022/05/28 07:20:18;;;;;;;4.10;2.90;;;15.60;99.90;;;;;;6276974;28;20466;-65
2022/05/28 07:23:25;;;;;;;2.70;2.30;;;15.50;99.90;;;;;;6276682;28;20545;-66
2022/05/28 07:26:28;;;;;;;2.77;2.40;;;15.50;99.90;;;;;;6277194;28;20479;-65
2022/05/28 07:29:31;;;;;;;4.13;2.70;;;15.50;99.90;;;;;;6277043;28;20814;-65
2022/05/28 07:32:34;;;;;;;3.50;3.03;;;15.40;99.90;;;;;;6278073;28;20474;-65
2022/05/28 07:35:39;;;;;;;2.50;2.30;;;15.40;99.90;;;;;;6282674;28;20952;-65
2022/05/28 07:38:43;;;;;;;3.70;2.37;;;15.50;99.90;;;;;;6281992;28;21042;-65
2022/05/28 07:41:46;;;;;;;9.43;3.17;;;15.70;99.90;;;;;;6280803;28;20489;-63
2022/05/28 07:44:49;;;;;;;2.00;1.90;;;15.90;99.90;;;;;;6277788;28;20478;-65
2022/05/28 07:47:53;;;;;;;2.47;2.27;;;16.00;99.90;;;;;;6277426;28;20476;-66
2022/05/28 07:50:57;;;;;;;3.17;2.53;;;16.00;99.90;;;;;;6277447;28;20462;-64
2022/05/28 07:54:01;;;;;;;2.70;2.50;;;16.00;99.90;;;;;;6276511;28;21002;-65
2022/05/28 07:57:04;;;;;;;3.03;2.73;;;15.90;99.90;;;;;;6276896;28;20798;-65
2022/05/28 08:00:09;;;;;;;2.60;2.40;;;15.90;99.90;;;;;;6276724;28;20467;-65
2022/05/28 08:03:13;;;;;;;3.30;2.37;;;15.80;99.90;;;;;;6276338;28;20474;-65
2022/05/28 08:06:18;;;;;;;3.23;2.97;;;15.70;99.90;;;;;;6275864;28;20472;-66
2022/05/28 08:09:21;;;;;;;3.87;3.23;;;15.50;99.90;;;;;;6275779;28;20472;-65
2022/05/28 08:12:25;;;;;;;3.30;3.00;;;15.20;99.90;;;;;;6275671;28;20816;-65
2022/05/28 08:15:28;;;;;;;3.30;3.10;;;15.00;99.90;;;;;;6275472;28;20509;-65
2022/05/28 08:18:31;;;;;;;4.00;3.70;;;14.80;99.90;;;;;;6275865;28;20447;-61
2022/05/28 08:25:11;;;;;;;3.97;3.57;;;14.80;99.90;;;;;;6205664;28;20476;-61
2022/05/28 08:28:18;;;;;;;5.70;3.50;;;14.90;99.90;;;;;;6223710;28;20471;-60
2022/05/28 08:31:22;;;;;;;3.90;3.60;;;14.70;99.90;;;;;;6290056;28;20462;-60
2022/05/28 08:34:25;;;;;;;3.87;3.47;;;14.70;99.90;;;;;;6275215;28;20800;-62
2022/05/28 08:37:29;;;;;;;5.07;3.00;;;14.70;99.90;;;;;;6275143;28;20476;-61
2022/05/28 08:40:38;;;;;;;4.40;4.07;;;14.80;99.90;;;;;;6274983;28;20525;-61
2022/05/28 08:43:46;;;;;;;4.10;3.80;;;14.80;99.90;;;;;;6274823;28;20481;-61
2022/05/28 08:46:54;;;;;;;4.73;4.33;;;14.70;99.90;;;;;;6274833;28;20789;-60
2022/05/28 08:49:58;;;;;;;5.50;3.80;;;14.60;99.90;;;;;;6274932;28;20814;-61
2022/05/28 08:53:07;;;;;;;4.87;3.83;;;14.50;99.90;;;;;;6276028;28;20979;-61
2022/05/28 08:56:17;;;;;;;4.10;3.80;;;14.40;99.90;;;;;;6276522;28;20471;-62
2022/05/28 08:59:24;;;;;;;5.70;4.10;;;14.40;99.90;;;;;;6276049;28;20466;-61
2022/05/28 09:02:38;;;;;;;5.80;4.50;;;14.40;99.90;;;;;;6274875;28;20513;-61
2022/05/28 09:05:48;;;;;;;3.87;3.57;;;14.40;99.90;;;;;;6274743;28;21002;-62
2022/05/28 09:08:54;;;;;;;4.50;4.10;;;14.30;99.90;;;;;;6274581;28;20470;-62
2022/05/28 09:12:02;;;;;;;5.97;3.93;;;14.40;99.90;;;;;;6274827;28;20470;-61
2022/05/28 09:15:06;;;;;;;4.37;3.97;;;14.30;99.90;;;;;;6274708;28;20478;-61
2022/05/28 09:18:12;;;;;;;5.17;4.67;;;14.30;99.90;;;;;;6274761;28;20469;-61
2022/05/28 09:21:17;;;;;;;4.60;4.20;;;14.40;99.90;;;;;;6265783;28;20940;-61
2022/05/28 09:24:24;;;;;;;5.20;4.57;;;14.50;99.90;;;;;;6274410;28;20466;-61
2022/05/28 09:27:34;;;;;;;5.20;4.67;;;14.60;99.90;;;;;;6274545;28;20469;-61
2022/05/28 09:30:44;;;;;;;5.00;4.50;;;14.70;99.90;;;;;;6274203;28;20459;-61
2022/05/28 09:34:06;;;;;;;6.20;4.90;;;14.70;99.90;;;;;;6275892;28;20497;-61
2022/05/28 09:37:18;;;;;;;5.07;4.47;;;14.70;99.90;;;;;;6276135;28;20471;-61
2022/05/28 09:40:35;;;;;;;5.13;3.70;;;14.50;99.90;;;;;;6274430;28;20485;-60
2022/05/28 09:43:50;;;;;;;3.60;3.30;;;14.40;99.90;;;;;;6274197;28;20479;-61
2022/05/28 09:46:54;;;;;;;5.10;4.30;;;14.50;99.90;;;;;;6274601;28;20466;-62
2022/05/28 09:49:58;;;;;;;4.80;3.70;;;14.40;99.90;;;;;;6273935;28;20466;-62
2022/05/28 09:56:35;;;;;;;4.80;4.40;;;14.30;99.90;;;;;;6274933;28;20485;-61
2022/05/28 09:59:52;;;;;;;4.67;4.20;;;14.50;99.90;;;;;;6273884;28;20979;-61
2022/05/28 10:06:18;;;;;;;4.77;4.37;;;14.70;99.90;;;;;;6278315;28;20467;-62
2022/05/28 10:09:24;;;;;;;5.63;4.20;;;14.80;99.90;;;;;;6278205;28;20505;-60
2022/05/28 10:12:30;;;;;;;5.97;4.70;;;14.90;99.90;;;;;;6278306;28;20545;-61
2022/05/28 10:15:40;;;;;;;4.27;3.90;;;15.10;99.90;;;;;;6278606;28;20473;-62
2022/05/28 10:18:52;;;;;;;4.30;3.93;;;15.20;99.90;;;;;;6278120;28;20461;-62
2022/05/28 10:21:57;;;;;;;3.83;3.53;;;15.30;99.90;;;;;;6269661;28;20481;-62
2022/05/28 10:25:03;;;;;;;7.17;3.87;;;15.30;99.90;;;;;;6278039;28;20470;-61
2022/05/28 10:28:10;;;;;;;4.40;4.00;;;15.40;99.90;;;;;;6277918;28;20462;-61
2022/05/28 10:31:18;;;;;;;4.30;3.57;;;15.50;99.90;;;;;;6277568;28;20466;-61
2022/05/28 10:34:33;;;;;;;5.03;3.47;;;15.60;99.90;;;;;;6277646;28;20481;-61
2022/05/28 10:37:36;;;;;;;4.13;3.77;;;15.70;99.90;;;;;;6277567;28;20462;-61
2022/05/28 10:40:48;;;;;;;4.40;4.00;;;15.90;99.90;;;;;;6277888;28;20481;-61
2022/05/28 10:43:53;;;;;;;6.37;3.93;;;16.10;99.90;;;;;;6277242;28;20489;-60
2022/05/28 10:47:12;;;;;;;40.40;22.60;;;16.20;99.90;;;;;;6277463;28;20952;-60
2022/05/28 10:50:24;;;;;;;30.63;16.77;;;16.30;99.90;;;;;;6277496;28;20467;-60
2022/05/28 10:53:49;;;;;;;6.80;6.10;;;16.40;99.90;;;;;;6277124;28;20479;-61
2022/05/28 10:56:55;;;;;;;12.57;7.77;;;16.50;99.90;;;;;;6277268;28;20470;-61
2022/05/28 11:00:07;;;;;;;5.30;4.77;;;16.50;99.90;;;;;;6277401;28;20528;-61
2022/05/28 11:03:35;;;;;;;11.07;9.87;;;16.60;99.90;;;;;;6276789;28;20489;-61
2022/05/28 11:06:53;;;;;;;13.90;11.73;;;16.60;99.90;;;;;;6277113;28;20762;-61
2022/05/28 11:10:13;;;;;;;7.90;6.90;;;16.50;99.90;;;;;;6277435;28;20459;-61
2022/05/28 11:13:49;;;;;;;4.80;4.40;;;16.50;99.90;;;;;;6276204;28;20493;-60
2022/05/28 11:17:18;;;;;;;3.63;3.33;;;16.30;99.90;;;;;;6276787;28;20480;-61
2022/05/28 11:20:28;;;;;;;4.33;3.93;;;16.30;99.90;;;;;;6277122;28;20977;-60
2022/05/28 11:24:00;;;;;;;4.53;4.10;;;16.30;99.90;;;;;;6276329;28;20489;-60
2022/05/28 11:27:14;;;;;;;4.23;3.83;;;16.10;99.90;;;;;;6263024;28;20481;-60
2022/05/28 11:30:20;;;;;;;3.37;3.07;;;16.10;99.90;;;;;;6276762;28;20481;-60
2022/05/28 11:33:28;;;;;;;3.90;3.60;;;16.40;99.90;;;;;;6276159;28;20920;-61
2022/05/28 11:36:38;;;;;;;3.70;3.30;;;16.70;99.90;;;;;;6276304;28;20463;-61
2022/05/28 11:39:46;;;;;;;5.20;4.63;;;16.90;99.90;;;;;;6276249;28;20447;-60
2022/05/28 11:42:54;;;;;;;7.43;3.27;;;17.20;99.90;;;;;;6275793;28;21026;-61
2022/05/28 11:46:05;;;;;;;4.43;3.53;;;17.30;99.90;;;;;;6275690;28;20488;-61
2022/05/28 11:52:40;;;;;;;3.47;3.20;;;17.90;99.90;;;;;;6275917;28;20493;-61
2022/05/28 11:55:47;;;;;;;4.83;4.43;;;18.00;99.90;;;;;;6276014;28;20479;-60
2022/05/28 11:58:53;;;;;;;3.10;2.90;;;18.10;99.90;;;;;;6275975;28;20474;-60
2022/05/28 12:02:01;;;;;;;3.67;3.37;;;18.10;99.90;;;;;;6275730;28;20470;-60
2022/05/28 12:05:16;;;;;;;6.47;3.60;;;18.10;99.90;;;;;;6275501;28;20474;-60
2022/05/28 12:08:26;;;;;;;3.37;3.17;;;18.10;99.90;;;;;;6275497;28;20470;-61
2022/05/28 12:11:49;;;;;;;3.53;3.33;;;18.00;99.90;;;;;;6275681;28;20481;-60
2022/05/28 12:15:05;;;;;;;6.60;3.67;;;17.90;99.90;;;;;;6275725;28;20588;-61
2022/05/28 12:18:27;;;;;;;4.63;3.60;;;17.80;99.90;;;;;;6275226;28;20584;-61
2022/05/28 12:21:34;;;;;;;4.97;3.50;;;17.60;99.90;;;;;;6300153;28;20525;-61
2022/05/28 12:24:40;;;;;;;4.73;4.33;;;17.40;99.90;;;;;;6300146;28;20448;-62
2022/05/28 12:27:46;;;;;;;4.30;3.90;;;17.20;99.90;;;;;;6299788;28;20759;-62
2022/05/28 12:30:53;;;;;;;4.43;4.03;;;16.90;99.90;;;;;;6300144;28;20472;-63
2022/05/28 12:33:59;;;;;;;5.50;5.00;;;16.90;99.90;;;;;;6299581;28;20565;-62
2022/05/28 12:37:11;;;;;;;4.70;4.30;;;16.80;99.90;;;;;;6300092;28;20546;-63
2022/05/28 12:40:30;;;;;;;5.03;4.53;;;16.90;99.90;;;;;;6299816;28;20484;-62
2022/05/28 12:43:35;;;;;;;4.53;4.17;;;16.90;99.90;;;;;;6299340;28;20481;-62
2022/05/28 12:46:42;;;;;;;4.80;4.13;;;16.90;99.90;;;;;;6299753;28;20771;-62
2022/05/28 12:49:51;;;;;;;3.90;3.57;;;17.00;99.90;;;;;;6299913;28;20631;-62
2022/05/28 12:53:01;;;;;;;4.37;4.03;;;17.10;99.90;;;;;;6299595;28;20470;-62
2022/05/28 12:56:06;;;;;;;5.03;3.73;;;17.30;99.90;;;;;;6300036;28;20481;-62
2022/05/28 12:59:13;;;;;;;5.80;4.07;;;17.30;99.90;;;;;;6299652;28;20809;-62
2022/05/28 13:02:26;;;;;;;4.13;3.83;;;17.40;99.90;;;;;;6299626;28;20488;-62
2022/05/28 13:05:35;;;;;;;4.47;3.63;;;17.50;99.90;;;;;;6300009;28;20473;-62
2022/05/28 13:08:48;;;;;;;5.80;3.77;;;17.70;99.90;;;;;;6299808;28;20808;-62
2022/05/28 13:11:57;;;;;;;4.30;4.00;;;17.80;99.90;;;;;;6299348;28;20469;-63
2022/05/28 13:15:39;;;;;;;4.03;3.47;;;18.00;99.90;;;;;;6278987;28;20821;-63
2022/05/28 13:19:22;;;;;;;4.10;3.70;;;18.10;99.90;;;;;;6279381;28;20882;-63
2022/05/28 13:22:54;;;;;;;4.50;4.10;;;18.10;99.90;;;;;;6299164;28;20469;-62
2022/05/28 13:26:21;;;;;;;3.90;3.60;;;18.00;99.90;;;;;;6299696;28;20469;-62
2022/05/28 13:29:49;;;;;;;3.30;3.10;;;18.10;99.90;;;;;;6292132;28;20484;-62
2022/05/28 13:32:57;;;;;;;4.07;3.77;;;18.00;99.90;;;;;;6299211;28;20473;-63
2022/05/28 13:36:02;;;;;;;5.37;3.50;;;17.90;99.90;;;;;;6301005;28;20473;-62
2022/05/28 13:39:07;;;;;;;4.13;3.83;;;17.60;99.90;;;;;;6304282;28;20475;-62
2022/05/28 13:42:12;;;;;;;4.17;3.50;;;17.40;99.90;;;;;;6304173;28;20512;-62
2022/05/28 13:45:22;;;;;;;6.30;4.93;;;17.60;99.90;;;;;;6303466;28;20793;-63
2022/05/28 13:48:27;;;;;;;3.90;3.47;;;17.80;99.90;;;;;;6303874;28;20794;-62
2022/05/28 13:51:31;;;;;;;3.67;3.43;;;17.70;99.90;;;;;;6303393;28;20453;-62
2022/05/28 13:54:34;;;;;;;4.00;3.70;;;17.70;99.90;;;;;;6303636;28;20476;-62
2022/05/28 13:57:42;;;;;;;4.00;3.70;;;17.50;99.90;;;;;;6303461;28;20938;-62
2022/05/28 14:00:54;;;;;;;6.50;5.87;;;17.60;99.90;;;;;;6303568;28;20524;-62
2022/05/28 14:04:09;;;;;;;3.73;3.43;;;17.50;99.90;;;;;;6303674;28;20461;-61
2022/05/28 14:07:22;;;;;;;4.37;3.93;;;17.60;99.90;;;;;;6303624;28;20768;-62
2022/05/28 14:10:26;;;;;;;4.03;3.73;;;17.80;99.90;;;;;;6303400;28;20759;-61
2022/05/28 14:13:33;;;;;;;4.53;4.13;;;18.10;99.90;;;;;;6303424;28;20469;-61
2022/05/28 14:16:38;;;;;;;4.37;3.97;;;18.20;99.90;;;;;;6303005;28;20485;-62
2022/05/28 14:19:47;;;;;;;4.70;4.33;;;18.20;99.90;;;;;;6302833;28;20469;-62
2022/05/28 14:22:53;;;;;;;5.13;4.07;;;18.30;99.90;;;;;;6302624;28;20478;-62
2022/05/28 14:25:56;;;;;;;4.33;4.03;;;18.20;99.90;;;;;;6303369;28;20477;-62
2022/05/28 14:29:05;;;;;;;3.83;3.53;;;18.20;99.90;;;;;;6302885;28;20969;-62
2022/05/28 14:32:12;;;;;;;3.83;3.50;;;18.30;99.90;;;;;;6302950;28;20478;-62
2022/05/28 14:35:22;;;;;;;4.30;3.97;;;18.20;99.90;;;;;;6293677;28;20469;-62
2022/05/28 14:38:28;;;;;;;4.33;3.70;;;17.90;99.90;;;;;;6302931;28;20484;-62
2022/05/28 14:41:31;;;;;;;5.67;4.17;;;17.80;99.90;;;;;;6302513;28;20480;-62
2022/05/28 14:44:38;;;;;;;4.07;3.77;;;18.00;99.90;;;;;;6301999;28;20488;-63
2022/05/28 14:47:41;;;;;;;5.00;4.53;;;18.00;99.90;;;;;;6301619;28;20469;-62
2022/05/28 14:50:48;;;;;;;5.33;4.27;;;17.90;99.90;;;;;;6302395;28;20619;-62
2022/05/28 14:53:53;;;;;;;4.77;4.37;;;17.80;99.90;;;;;;6302499;28;20477;-63
2022/05/28 14:56:57;;;;;;;4.77;4.27;;;17.80;99.90;;;;;;6301989;28;20477;-62
2022/05/28 15:00:04;;;;;;;5.57;5.07;;;17.80;99.90;;;;;;6302236;28;20469;-63
2022/05/28 15:03:10;;;;;;;5.13;3.30;;;17.40;99.90;;;;;;6302129;28;20473;-62
2022/05/28 15:06:18;;;;;;;4.33;3.93;;;17.40;99.90;;;;;;6302117;28;20477;-62
2022/05/28 15:09:26;;;;;;;3.87;3.57;;;17.10;99.90;;;;;;6301610;28;20806;-63
2022/05/28 15:12:31;;;;;;;10.80;6.50;;;17.00;99.90;;;;;;6302083;28;20482;-62
2022/05/28 15:15:35;;;;;;;6.07;4.60;;;17.10;99.90;;;;;;6302023;28;20472;-63
2022/05/28 15:18:39;;;;;;;5.50;4.13;;;16.90;99.90;;;;;;6301832;28;20481;-63
2022/05/28 15:21:42;;;;;;;5.00;4.50;;;16.60;99.90;;;;;;6301274;28;20470;-63
2022/05/28 15:24:47;;;;;;;5.00;4.50;;;16.50;99.90;;;;;;6301812;28;20441;-63
2022/05/28 15:27:50;;;;;;;7.73;4.10;;;16.40;99.90;;;;;;6301611;28;20444;-63
2022/05/28 15:30:54;;;;;;;4.87;4.47;;;16.50;99.90;;;;;;6301806;28;20915;-62
2022/05/28 15:33:58;;;;;;;5.40;4.60;;;16.50;99.90;;;;;;6292475;28;20465;-62
2022/05/28 15:40:23;;;;;;;4.50;4.20;;;16.60;99.90;;;;;;6301226;28;20496;-63
2022/05/28 15:43:27;;;;;;;5.27;3.90;;;16.70;99.90;;;;;;6300470;28;20965;-62
2022/05/28 15:46:31;;;;;;;5.47;4.97;;;16.40;99.90;;;;;;6301183;28;20558;-62
2022/05/28 15:49:35;;;;;;;6.37;4.40;;;16.40;99.90;;;;;;6300980;28;20484;-62
2022/05/28 15:52:38;;;;;;;8.10;4.60;;;16.50;99.90;;;;;;6300936;28;20470;-63
2022/05/28 15:55:44;;;;;;;9.00;4.20;;;16.60;99.90;;;;;;6300821;28;20841;-62
2022/05/28 15:58:48;;;;;;;5.50;4.07;;;16.50;99.90;;;;;;6300295;28;20465;-62
2022/05/28 16:01:53;;;;;;;7.97;7.13;;;16.50;99.90;;;;;;6300461;28;20488;-61
2022/05/28 16:04:56;;;;;;;55.93;29.50;;;16.60;99.90;;;;;;6300621;28;20897;-62
2022/05/28 16:08:05;;;;;;;38.27;23.50;;;16.40;99.90;;;;;;6300505;28;20480;-62
2022/05/28 16:11:14;;;;;;;17.50;12.77;;;16.30;99.90;;;;;;6300637;28;20615;-63
2022/05/28 16:14:28;;;;;;;6.63;6.03;;;16.30;99.90;;;;;;6300498;28;20474;-63
2022/05/28 16:17:32;;;;;;;4.33;4.03;;;16.20;99.90;;;;;;6300409;28;20896;-62
2022/05/28 16:20:37;;;;;;;4.40;4.00;;;16.10;99.90;;;;;;6300325;28;20850;-62
2022/05/28 16:23:41;;;;;;;4.63;4.17;;;16.00;99.90;;;;;;6300098;28;20469;-62
2022/05/28 16:26:44;;;;;;;4.50;4.10;;;15.90;99.90;;;;;;6300228;28;20473;-62